createdAt,value
2022-10-23T00:01:15.903Z,14.80
2022-10-23T00:03:44.582Z,14.80
2022-10-23T00:06:13.459Z,14.80
2022-10-23T00:08:42.473Z,14.70
2022-10-23T00:11:14.346Z,14.70
2022-10-23T00:13:42.447Z,14.70
2022-10-23T00:16:10.843Z,14.70
2022-10-23T00:18:39.739Z,14.70
2022-10-23T00:21:09.346Z,14.80
2022-10-23T00:23:37.894Z,14.70
2022-10-23T00:26:06.463Z,14.70
2022-10-23T00:28:36.658Z,14.80
2022-10-23T00:31:06.221Z,14.80
2022-10-23T00:33:34.495Z,14.80
2022-10-23T00:36:04.650Z,14.70
2022-10-23T00:38:32.675Z,14.70
2022-10-23T00:41:00.967Z,14.70
2022-10-23T00:43:31.222Z,14.60
2022-10-23T00:46:00.928Z,14.50
2022-10-23T00:48:30.107Z,14.60
2022-10-23T00:50:58.374Z,14.70
2022-10-23T00:53:26.584Z,14.70
2022-10-23T00:55:57.585Z,14.60
2022-10-23T00:58:25.662Z,14.60
2022-10-23T01:00:57.013Z,14.60
2022-10-23T01:03:28.607Z,14.50
2022-10-23T01:06:04.071Z,14.50
2022-10-23T01:08:37.842Z,14.50
2022-10-23T01:11:13.268Z,14.60
2022-10-23T01:13:49.328Z,14.50
2022-10-23T01:16:21.961Z,14.50
2022-10-23T01:18:59.951Z,14.50
2022-10-23T01:21:35.867Z,14.50
2022-10-23T01:24:22.545Z,14.60
2022-10-23T01:27:29.332Z,14.60
2022-10-23T01:30:06.711Z,14.40
2022-10-23T01:32:47.217Z,14.40
2022-10-23T01:35:20.677Z,14.40
2022-10-23T01:38:02.067Z,14.50
2022-10-23T01:40:34.827Z,14.50
2022-10-23T01:43:07.758Z,14.50
2022-10-23T01:45:42.639Z,14.50
2022-10-23T01:48:18.678Z,14.40
2022-10-23T01:50:48.176Z,14.40
2022-10-23T01:53:16.402Z,14.30
2022-10-23T01:55:45.104Z,14.30
2022-10-23T01:58:21.103Z,14.30
2022-10-23T02:00:52.755Z,14.30
2022-10-23T02:03:21.922Z,14.40
2022-10-23T02:05:50.373Z,14.30
2022-10-23T02:08:18.523Z,14.30
2022-10-23T02:10:53.561Z,14.40
2022-10-23T02:13:27.013Z,14.40
2022-10-23T02:16:03.453Z,14.50
2022-10-23T02:18:37.498Z,14.40
2022-10-23T02:21:10.441Z,14.40
2022-10-23T02:23:44.393Z,14.40
2022-10-23T02:26:18.497Z,14.40
2022-10-23T02:28:52.971Z,14.40
2022-10-23T02:31:24.368Z,14.40
2022-10-23T02:33:52.631Z,14.40
2022-10-23T02:36:21.281Z,14.40
2022-10-23T02:38:49.736Z,14.40
2022-10-23T02:41:26.084Z,14.40
2022-10-23T02:44:10.496Z,14.40
2022-10-23T02:46:51.374Z,14.40
2022-10-23T02:49:26.197Z,14.40
2022-10-23T02:52:00.380Z,14.40
2022-10-23T02:54:47.006Z,14.40
2022-10-23T02:57:23.713Z,14.40
2022-10-23T03:00:01.568Z,14.30
2022-10-23T03:02:36.969Z,14.30
2022-10-23T03:05:09.692Z,14.30
2022-10-23T03:07:39.818Z,14.30
2022-10-23T03:10:11.439Z,14.30
2022-10-23T03:12:40.449Z,14.30
2022-10-23T03:15:11.706Z,14.30
2022-10-23T03:17:41.250Z,14.30
2022-10-23T03:20:11.664Z,14.30
2022-10-23T03:22:40.710Z,14.40
2022-10-23T03:25:10.154Z,14.40
2022-10-23T03:27:38.492Z,14.30
2022-10-23T03:30:10.667Z,14.30
2022-10-23T03:32:42.491Z,14.30
2022-10-23T03:35:10.716Z,14.20
2022-10-23T03:37:39.247Z,14.20
2022-10-23T03:40:08.588Z,14.30
2022-10-23T03:42:36.657Z,14.30
2022-10-23T03:45:05.254Z,14.40
2022-10-23T03:47:35.275Z,14.40
2022-10-23T03:50:05.397Z,14.40
2022-10-23T03:52:34.992Z,14.30
2022-10-23T03:55:08.048Z,14.30
2022-10-23T03:57:38.111Z,14.30
2022-10-23T04:00:08.144Z,14.40
2022-10-23T04:02:44.816Z,14.30
2022-10-23T04:05:15.056Z,14.30
2022-10-23T04:07:52.244Z,14.30
2022-10-23T04:10:20.783Z,14.30
2022-10-23T04:12:49.182Z,14.20
2022-10-23T04:15:17.548Z,14.20
2022-10-23T04:17:47.378Z,14.30
2022-10-23T04:20:17.056Z,14.30
2022-10-23T04:22:45.654Z,14.20
2022-10-23T04:25:14.454Z,14.20
2022-10-23T04:27:42.791Z,14.20
2022-10-23T04:30:12.442Z,14.30
2022-10-23T04:32:40.707Z,14.30
2022-10-23T04:35:09.481Z,14.30
2022-10-23T04:37:38.832Z,14.30
2022-10-23T04:40:09.102Z,14.30
2022-10-23T04:42:39.142Z,14.40
2022-10-23T04:45:08.375Z,14.30
2022-10-23T04:47:37.031Z,14.30
2022-10-23T04:50:06.444Z,14.30
2022-10-23T04:52:57.050Z,14.20
2022-10-23T04:55:50.140Z,14.20
2022-10-23T04:58:27.425Z,14.30
2022-10-23T05:00:58.506Z,14.20
2022-10-23T05:03:28.506Z,14.20
2022-10-23T05:05:57.548Z,14.20
2022-10-23T05:08:45.397Z,14.20
2022-10-23T05:11:31.931Z,14.20
2022-10-23T05:14:00.245Z,14.30
2022-10-23T05:16:37.725Z,14.30
2022-10-23T05:19:07.198Z,14.20
2022-10-23T05:21:36.811Z,14.10
2022-10-23T05:24:09.327Z,14.10
2022-10-23T05:26:37.341Z,14.10
2022-10-23T05:29:08.625Z,14.10
2022-10-23T05:31:37.338Z,14.10
2022-10-23T05:34:16.318Z,14.10
2022-10-23T05:36:46.180Z,14.20
2022-10-23T05:39:17.551Z,14.10
2022-10-23T05:41:46.687Z,14.10
2022-10-23T05:44:20.836Z,14.10
2022-10-23T05:46:54.510Z,14.10
2022-10-23T05:49:41.163Z,14.10
2022-10-23T05:52:27.924Z,14.10
2022-10-23T05:55:20.672Z,14.20
2022-10-23T05:58:02.416Z,14.10
2022-10-23T06:00:56.432Z,14.10
2022-10-23T06:03:47.664Z,14.10
2022-10-23T06:06:15.688Z,14.10
2022-10-23T06:08:47.463Z,14.10
2022-10-23T06:11:17.122Z,14.10
2022-10-23T06:13:53.427Z,14.20
2022-10-23T06:16:24.586Z,14.20
2022-10-23T06:18:52.857Z,14.10
2022-10-23T06:21:21.199Z,14.10
2022-10-23T06:23:51.568Z,14.10
2022-10-23T06:26:39.718Z,14.00
2022-10-23T06:29:10.770Z,14.10
2022-10-23T06:31:41.040Z,14.10
2022-10-23T06:34:12.568Z,14.10
2022-10-23T06:36:40.747Z,14.20
2022-10-23T06:39:25.211Z,14.10
2022-10-23T06:42:10.234Z,14.10
2022-10-23T06:45:01.141Z,14.10
2022-10-23T06:47:51.357Z,14.10
2022-10-23T06:50:38.249Z,14.10
2022-10-23T06:53:12.409Z,14.10
2022-10-23T06:55:46.183Z,14.10
2022-10-23T06:58:16.862Z,14.20
2022-10-23T07:01:01.759Z,14.20
2022-10-23T07:03:30.478Z,14.30
2022-10-23T07:06:02.036Z,14.30
2022-10-23T07:08:30.623Z,14.20
2022-10-23T07:10:59.168Z,14.20
2022-10-23T07:13:29.003Z,14.20
2022-10-23T07:16:12.435Z,14.30
2022-10-23T07:18:41.528Z,14.30
2022-10-23T07:21:41.622Z,14.30
2022-10-23T07:24:31.350Z,14.40
2022-10-23T07:27:02.662Z,14.40
2022-10-23T07:29:32.979Z,14.40
2022-10-23T07:32:01.780Z,14.40
2022-10-23T07:34:48.379Z,14.40
2022-10-23T07:37:25.416Z,14.50
2022-10-23T07:39:53.479Z,14.50
2022-10-23T07:42:21.563Z,14.60
2022-10-23T07:44:52.115Z,14.60
2022-10-23T07:47:20.422Z,14.60
2022-10-23T07:49:51.766Z,14.70
2022-10-23T07:52:21.616Z,14.70
2022-10-23T07:55:11.897Z,14.70
2022-10-23T07:57:48.932Z,14.80
2022-10-23T08:00:52.588Z,14.90
2022-10-23T08:03:29.148Z,15.00
2022-10-23T08:05:57.843Z,15.10
2022-10-23T08:08:26.887Z,15.10
2022-10-23T08:11:01.234Z,15.20
2022-10-23T08:13:34.347Z,15.20
2022-10-23T08:16:07.553Z,15.20
2022-10-23T08:19:08.780Z,15.30
2022-10-23T08:21:40.135Z,15.40
2022-10-23T08:24:13.185Z,15.40
2022-10-23T08:26:42.700Z,15.50
2022-10-23T08:29:11.510Z,15.50
2022-10-23T08:31:40.945Z,15.50
2022-10-23T08:34:20.802Z,15.50
2022-10-23T08:36:51.310Z,15.60
2022-10-23T08:39:19.608Z,15.60
2022-10-23T08:42:03.352Z,15.70
2022-10-23T08:44:34.851Z,15.70
2022-10-23T08:47:09.508Z,15.70
2022-10-23T08:50:01.312Z,15.70
2022-10-23T08:52:34.719Z,15.70
2022-10-23T08:55:13.319Z,15.80
2022-10-23T08:57:49.959Z,15.80
2022-10-23T09:00:18.779Z,15.80
2022-10-23T09:02:51.448Z,15.80
2022-10-23T09:05:25.361Z,15.80
2022-10-23T09:08:19.036Z,15.80
2022-10-23T09:10:59.312Z,15.80
2022-10-23T09:13:45.271Z,15.80
2022-10-23T09:16:19.839Z,15.80
2022-10-23T09:18:50.646Z,15.80
2022-10-23T09:21:19.025Z,15.80
2022-10-23T09:23:47.057Z,15.80
2022-10-23T09:26:17.449Z,15.70
2022-10-23T09:28:48.998Z,15.70
2022-10-23T09:31:17.721Z,15.70
2022-10-23T09:33:57.924Z,15.70
2022-10-23T09:36:29.103Z,15.70
2022-10-23T09:38:59.808Z,15.70
2022-10-23T09:41:31.043Z,15.70
2022-10-23T09:44:12.227Z,15.70
2022-10-23T09:46:41.272Z,15.70
2022-10-23T09:49:19.205Z,15.70
2022-10-23T09:52:00.329Z,15.70
2022-10-23T09:54:29.248Z,15.80
2022-10-23T09:57:03.235Z,15.80
2022-10-23T09:59:33.536Z,15.80
2022-10-23T10:02:04.481Z,15.80
2022-10-23T10:04:54.304Z,15.80
2022-10-23T10:07:23.992Z,15.80
2022-10-23T10:09:53.309Z,15.80
2022-10-23T10:12:43.920Z,15.80
2022-10-23T10:15:24.249Z,15.80
2022-10-23T10:18:00.219Z,15.80
2022-10-23T10:20:47.104Z,15.80
2022-10-23T10:23:23.460Z,15.90
2022-10-23T10:26:00.029Z,15.90
2022-10-23T10:28:41.884Z,15.90
2022-10-23T10:31:19.090Z,15.90
2022-10-23T10:33:54.375Z,16.00
2022-10-23T10:36:38.377Z,16.00
2022-10-23T10:39:12.905Z,15.90
2022-10-23T10:42:08.407Z,15.90
2022-10-23T10:44:51.272Z,15.90
2022-10-23T10:47:25.563Z,16.00
2022-10-23T10:50:03.836Z,15.90
2022-10-23T10:52:49.382Z,16.00
2022-10-23T10:55:23.404Z,16.00
2022-10-23T10:57:59.223Z,16.00
2022-10-23T11:00:30.870Z,16.00
2022-10-23T11:03:02.711Z,16.00
2022-10-23T11:05:33.834Z,16.00
2022-10-23T11:08:11.893Z,16.00
2022-10-23T11:10:45.362Z,16.00
2022-10-23T11:13:26.049Z,15.90
2022-10-23T11:15:58.968Z,15.90
2022-10-23T11:18:29.871Z,15.90
2022-10-23T11:21:12.145Z,16.00
2022-10-23T11:23:53.763Z,16.00
2022-10-23T11:26:34.189Z,16.00
2022-10-23T11:29:26.496Z,16.00
2022-10-23T11:32:08.413Z,16.00
2022-10-23T11:34:56.796Z,16.00
2022-10-23T11:37:26.723Z,16.00
2022-10-23T11:40:21.690Z,16.10
2022-10-23T11:42:51.197Z,16.10
2022-10-23T11:45:43.463Z,16.00
2022-10-23T11:48:23.649Z,16.10
2022-10-23T11:50:54.912Z,16.10
2022-10-23T11:53:29.227Z,16.10
2022-10-23T11:56:06.684Z,16.10
2022-10-23T11:58:46.774Z,16.10
2022-10-23T12:01:34.533Z,16.10
2022-10-23T12:04:07.481Z,16.10
2022-10-23T12:06:41.304Z,16.10
2022-10-23T12:09:24.407Z,16.10
2022-10-23T12:12:14.771Z,16.10
2022-10-23T12:14:46.531Z,16.10
2022-10-23T12:17:39.971Z,16.10
2022-10-23T12:20:23.677Z,16.10
2022-10-23T12:23:03.508Z,16.20
2022-10-23T12:25:42.254Z,16.20
2022-10-23T12:28:24.343Z,16.20
2022-10-23T12:30:58.804Z,16.30
2022-10-23T12:33:34.557Z,16.30
2022-10-23T12:36:27.852Z,16.30
2022-10-23T12:38:58.525Z,16.30
2022-10-23T12:41:29.058Z,16.40
2022-10-23T12:44:00.965Z,16.40
2022-10-23T12:46:34.835Z,16.40
2022-10-23T12:49:13.732Z,16.40
2022-10-23T12:51:41.755Z,16.40
2022-10-23T12:54:16.757Z,16.40
2022-10-23T12:56:45.276Z,16.40
2022-10-23T12:59:19.295Z,16.40
2022-10-23T13:01:52.394Z,16.40
2022-10-23T13:04:28.722Z,16.40
2022-10-23T13:06:58.259Z,16.50
2022-10-23T13:09:30.539Z,16.50
2022-10-23T13:12:20.790Z,16.50
2022-10-23T13:15:00.238Z,16.50
2022-10-23T13:17:37.250Z,16.50
2022-10-23T13:20:27.318Z,16.50
2022-10-23T13:23:00.834Z,16.50
2022-10-23T13:25:31.277Z,16.50
2022-10-23T13:28:18.434Z,16.50
2022-10-23T13:30:59.932Z,16.50
2022-10-23T13:33:34.199Z,16.50
2022-10-23T13:36:03.600Z,16.50
2022-10-23T13:38:34.044Z,16.60
2022-10-23T13:41:03.879Z,16.50
2022-10-23T13:43:33.491Z,16.50
2022-10-23T13:46:03.240Z,16.50
2022-10-23T13:48:32.468Z,16.60
2022-10-23T13:51:11.519Z,16.60
2022-10-23T13:53:39.514Z,16.50
2022-10-23T13:56:08.268Z,16.60
2022-10-23T13:58:36.264Z,16.50
2022-10-23T14:01:06.420Z,16.60
2022-10-23T14:03:35.383Z,16.60
2022-10-23T14:06:03.456Z,16.50
2022-10-23T14:08:31.445Z,16.60
2022-10-23T14:10:59.414Z,16.60
2022-10-23T14:13:27.413Z,16.60
2022-10-23T14:15:55.792Z,16.60
2022-10-23T14:18:25.356Z,16.60
2022-10-23T14:20:53.323Z,16.60
2022-10-23T14:23:21.380Z,16.60
2022-10-23T14:25:49.394Z,16.50
2022-10-23T14:28:17.402Z,16.60
2022-10-23T14:30:45.467Z,16.50
2022-10-23T14:33:14.923Z,16.60
2022-10-23T14:35:44.271Z,16.60
2022-10-23T14:38:12.375Z,16.60
2022-10-23T14:40:40.355Z,16.50
2022-10-23T14:43:08.351Z,16.50
2022-10-23T14:45:37.416Z,16.50
2022-10-23T14:48:05.760Z,16.60
2022-10-23T14:50:35.589Z,16.60
2022-10-23T14:53:05.417Z,16.50
2022-10-23T14:55:33.440Z,16.50
2022-10-23T14:58:01.471Z,16.50
2022-10-23T15:00:29.526Z,16.50
2022-10-23T15:02:57.508Z,16.50
2022-10-23T15:05:25.516Z,16.50
2022-10-23T15:07:53.486Z,16.60
2022-10-23T15:10:22.849Z,16.50
2022-10-23T15:12:50.815Z,16.50
2022-10-23T15:15:18.978Z,16.50
2022-10-23T15:17:46.954Z,16.50
2022-10-23T15:20:14.980Z,16.50
2022-10-23T15:22:43.212Z,16.60
2022-10-23T15:25:15.540Z,16.50
2022-10-23T15:27:48.273Z,16.60
2022-10-23T15:30:16.449Z,16.50
2022-10-23T15:32:45.411Z,16.50
2022-10-23T15:35:13.409Z,16.60
2022-10-23T15:37:41.637Z,16.60
2022-10-23T15:40:10.809Z,16.60
2022-10-23T15:42:38.835Z,16.50
2022-10-23T15:45:09.795Z,16.50
2022-10-23T15:47:37.828Z,16.60
2022-10-23T15:50:06.726Z,16.50
2022-10-23T15:52:34.732Z,16.50
2022-10-23T15:55:02.908Z,16.50
2022-10-23T15:57:31.224Z,16.50
2022-10-23T15:59:59.299Z,16.50
2022-10-23T16:02:28.737Z,16.40
2022-10-23T16:04:56.849Z,16.50
2022-10-23T16:07:25.069Z,16.40
2022-10-23T16:09:53.098Z,16.40
2022-10-23T16:12:21.095Z,16.40
2022-10-23T16:14:49.217Z,16.40
2022-10-23T16:17:18.455Z,16.40
2022-10-23T16:19:47.843Z,16.40
2022-10-23T16:22:17.396Z,16.30
2022-10-23T16:24:45.438Z,16.30
2022-10-23T16:27:13.420Z,16.30
2022-10-23T16:29:41.416Z,16.30
2022-10-23T16:32:09.437Z,16.30
2022-10-23T16:34:37.451Z,16.30
2022-10-23T16:37:07.134Z,16.30
2022-10-23T16:39:51.819Z,16.30
2022-10-23T16:42:39.404Z,16.30
2022-10-23T16:45:12.839Z,16.30
2022-10-23T16:47:40.853Z,16.30
2022-10-23T16:50:09.254Z,16.30
2022-10-23T16:52:39.293Z,16.30
2022-10-23T16:55:08.091Z,16.20
2022-10-23T16:57:36.302Z,16.30
2022-10-23T17:00:05.473Z,16.20
2022-10-23T17:02:34.146Z,16.20
2022-10-23T17:05:02.406Z,16.20
2022-10-23T17:07:30.539Z,16.20
2022-10-23T17:09:59.906Z,16.20
2022-10-23T17:12:27.928Z,16.20
2022-10-23T17:14:56.190Z,16.20
2022-10-23T17:17:24.234Z,16.20
2022-10-23T17:19:52.295Z,16.20
2022-10-23T17:22:20.284Z,16.20
2022-10-23T17:24:51.492Z,16.20
2022-10-23T17:27:23.296Z,16.20
2022-10-23T17:29:51.333Z,16.20
2022-10-23T17:32:19.382Z,16.30
2022-10-23T17:34:47.465Z,16.30
2022-10-23T17:37:15.569Z,16.20
2022-10-23T17:39:43.765Z,16.20
2022-10-23T17:42:11.734Z,16.20
2022-10-23T17:44:41.090Z,16.20
2022-10-23T17:47:09.108Z,16.20
2022-10-23T17:49:38.110Z,16.20
2022-10-23T17:52:10.133Z,16.20
2022-10-23T17:54:38.118Z,16.20
2022-10-23T17:57:06.126Z,16.20
2022-10-23T17:59:34.156Z,16.20
2022-10-23T18:02:03.625Z,16.20
2022-10-23T18:04:31.677Z,16.20
2022-10-23T18:06:59.704Z,16.30
2022-10-23T18:09:27.747Z,16.30
2022-10-23T18:11:55.752Z,16.30
2022-10-23T18:14:28.449Z,16.30
2022-10-23T18:16:57.660Z,16.30
2022-10-23T18:19:28.176Z,16.30
2022-10-23T18:21:56.601Z,16.30
2022-10-23T18:24:25.574Z,16.30
2022-10-23T18:26:53.606Z,16.30
2022-10-23T18:29:22.742Z,16.30
2022-10-23T18:31:50.813Z,16.30
2022-10-23T18:34:21.146Z,16.30
2022-10-23T18:36:51.984Z,16.30
2022-10-23T18:39:22.923Z,16.30
2022-10-23T18:41:52.738Z,16.30
2022-10-23T18:44:22.897Z,16.30
2022-10-23T18:46:51.463Z,16.30
2022-10-23T18:49:20.397Z,16.40
2022-10-23T18:51:50.711Z,16.40
2022-10-23T18:54:21.180Z,16.40
2022-10-23T18:56:49.866Z,16.40
2022-10-23T18:59:20.336Z,16.40
2022-10-23T19:01:48.833Z,16.40
2022-10-23T19:04:18.335Z,16.40
2022-10-23T19:06:47.293Z,16.40
2022-10-23T19:09:17.367Z,16.40
2022-10-23T19:11:45.909Z,16.40
2022-10-23T19:14:14.227Z,16.40
2022-10-23T19:16:45.349Z,16.40
2022-10-23T19:19:18.687Z,16.30
2022-10-23T19:21:47.884Z,16.30
2022-10-23T19:24:22.607Z,16.40
2022-10-23T19:26:51.282Z,16.30
2022-10-23T19:29:22.654Z,16.30
2022-10-23T19:31:51.766Z,16.30
2022-10-23T19:34:22.807Z,16.30
2022-10-23T19:36:52.121Z,16.30
2022-10-23T19:39:22.682Z,16.30
2022-10-23T19:41:51.865Z,16.30
2022-10-23T19:44:20.655Z,16.30
2022-10-23T19:46:49.181Z,16.30
2022-10-23T19:49:18.235Z,16.30
2022-10-23T19:51:51.006Z,16.30
2022-10-23T19:54:21.419Z,16.30
2022-10-23T19:56:50.081Z,16.30
2022-10-23T19:59:18.624Z,16.30
2022-10-23T20:01:48.927Z,16.30
2022-10-23T20:04:18.284Z,16.30
2022-10-23T20:06:46.985Z,16.30
2022-10-23T20:09:14.987Z,16.30
2022-10-23T20:11:45.142Z,16.30
2022-10-23T20:14:13.745Z,16.30
2022-10-23T20:16:41.810Z,16.30
2022-10-23T20:19:12.142Z,16.30
2022-10-23T20:21:41.889Z,16.30
2022-10-23T20:24:11.480Z,16.30
2022-10-23T20:26:41.100Z,16.30
2022-10-23T20:29:10.480Z,16.30
2022-10-23T20:31:39.374Z,16.30
2022-10-23T20:34:07.815Z,16.30
2022-10-23T20:36:38.571Z,16.30
2022-10-23T20:39:09.993Z,16.30
2022-10-23T20:41:38.082Z,16.30
2022-10-23T20:44:07.631Z,16.30
2022-10-23T20:46:37.106Z,16.30
2022-10-23T20:49:05.258Z,16.30
2022-10-23T20:51:33.336Z,16.20
2022-10-23T20:54:01.411Z,16.20
2022-10-23T20:56:31.286Z,16.20
2022-10-23T20:59:00.018Z,16.20
2022-10-23T21:01:28.822Z,16.20
2022-10-23T21:04:00.395Z,16.20
2022-10-23T21:06:41.003Z,16.20
2022-10-23T21:09:17.944Z,16.20
2022-10-23T21:11:46.265Z,16.20
2022-10-23T21:14:14.342Z,16.20
2022-10-23T21:16:44.530Z,16.20
2022-10-23T21:19:16.006Z,16.20
2022-10-23T21:21:44.516Z,16.20
2022-10-23T21:24:16.811Z,16.10
2022-10-23T21:26:46.207Z,16.20
2022-10-23T21:29:19.383Z,16.20
2022-10-23T21:31:52.848Z,16.10
2022-10-23T21:34:22.616Z,16.20
2022-10-23T21:39:38.665Z,16.20
2022-10-23T21:42:06.771Z,16.20
2022-10-23T21:44:34.754Z,16.20
2022-10-23T21:47:02.964Z,16.20
2022-10-23T21:49:32.745Z,16.20
2022-10-23T21:52:00.878Z,16.20
2022-10-23T21:54:28.881Z,16.20
2022-10-23T21:56:56.871Z,16.20
2022-10-23T21:59:29.014Z,16.20
2022-10-23T22:02:00.006Z,16.20
2022-10-23T22:04:28.239Z,16.20
2022-10-23T22:06:57.753Z,16.20
2022-10-23T22:09:25.818Z,16.20
2022-10-23T22:11:54.862Z,16.20
2022-10-23T22:14:23.596Z,16.20
2022-10-23T22:16:52.095Z,16.20
2022-10-23T22:19:22.309Z,16.20
2022-10-23T22:21:51.314Z,16.20
2022-10-23T22:24:20.977Z,16.20
2022-10-23T22:26:51.061Z,16.20
2022-10-23T22:29:21.744Z,16.20
2022-10-23T22:31:50.333Z,16.20
2022-10-23T22:34:25.408Z,16.30
2022-10-23T22:37:08.384Z,16.20
2022-10-23T22:39:37.846Z,16.20
2022-10-23T22:42:06.025Z,16.30
2022-10-23T22:44:34.125Z,16.30
2022-10-23T22:47:02.176Z,16.30
2022-10-23T22:49:30.485Z,16.30
2022-10-23T22:51:58.544Z,16.20
2022-10-23T22:54:26.569Z,16.20
2022-10-23T22:56:55.928Z,16.20
2022-10-23T22:59:24.111Z,16.20
2022-10-23T23:01:52.652Z,16.20
2022-10-23T23:07:10.068Z,16.10
2022-10-23T23:09:40.389Z,16.10
2022-10-23T23:12:12.653Z,16.10
2022-10-23T23:14:41.333Z,16.10
2022-10-23T23:17:10.532Z,16.00
2022-10-23T23:19:39.091Z,16.00
2022-10-23T23:22:07.568Z,16.00
2022-10-23T23:24:35.794Z,16.00
2022-10-23T23:27:03.909Z,16.00
2022-10-23T23:29:33.529Z,16.00
2022-10-23T23:32:01.671Z,16.00
2022-10-23T23:34:29.782Z,16.00
2022-10-23T23:36:57.863Z,16.00
2022-10-23T23:39:26.374Z,16.00
2022-10-23T23:41:54.373Z,16.00
2022-10-23T23:44:22.432Z,16.00
2022-10-23T23:46:51.747Z,16.00
2022-10-23T23:49:20.119Z,16.00
2022-10-23T23:51:48.448Z,16.00
2022-10-23T23:54:16.524Z,16.00
2022-10-23T23:56:44.542Z,16.00
2022-10-23T23:59:12.614Z,16.00
